EST,Max TemperatureF,Mean TemperatureF,Min TemperatureF,Max Dew PointF,MeanDew PointF,Min DewpointF,Max Humidity, Mean Humidity, Min Humidity, Max Sea Level PressureIn, Mean Sea Level PressureIn, Min Sea Level PressureIn, Max VisibilityMiles, Mean VisibilityMiles, Min VisibilityMiles, Max Wind SpeedMPH, Mean Wind SpeedMPH, Max Gust SpeedMPH,PrecipitationIn, CloudCover, Events, WindDirDegrees
2011-11-1,60,48,37,41,36,32,87,68,42,30.35,30.29,30.24,10,10,5,10,4,,0.00,1,,350
2011-11-2,62,46,30,41,35,28,93,70,39,30.45,30.37,30.29,10,9,1,9,1,,0.00,0,,173
2011-11-3,64,48,33,43,37,30,93,73,39,30.27,30.10,29.94,10,9,2,12,1,,0.00,0,,175
2011-11-4,55,50,44,45,36,21,87,63,32,30.24,30.01,29.88,10,10,7,22,7,32,0.00,2,,2
2011-11-5,53,43,33,27,24,19,70,51,26,30.48,30.39,30.27,10,10,10,12,7,16,0.00,0,,10
2011-11-6,59,42,26,39,31,21,93,72,45,30.55,30.49,30.40,10,10,7,8,1,16,0.00,1,,169
2011-11-7,64,47,30,45,35,27,93,76,40,30.42,30.36,30.30,10,7,0,5,0,,0.00,2,,151
2011-11-8,69,50,30,43,35,27,93,69,30,30.33,30.27,30.21,10,10,2,8,1,,0.00,0,,155
2011-11-9,66,47,28,45,36,27,93,74,37,30.22,30.12,30.00,10,9,2,12,2,,0.00,1,,161
2011-11-10,53,48,44,48,40,28,93,77,50,29.98,29.89,29.84,10,9,4,15,3,24,0.00,6,,337
2011-11-11,48,39,30,28,23,19,81,49,32,30.13,29.97,29.86,10,10,10,23,11,32,0.00,1,,287
2011-11-12,64,44,23,32,26,19,93,59,28,30.17,30.14,30.09,10,10,9,14,2,18,0.00,0,,193
2011-11-13,64,47,30,37,30,27,93,52,27,30.14,30.07,30.00,10,10,10,15,4,23,0.00,0,,184
2011-11-14,73,63,53,52,47,39,72,56,41,30.01,29.92,29.83,10,10,10,14,10,20,0.00,0,,192
2011-11-15,66,60,55,54,52,48,94,70,59,30.00,29.92,29.82,10,10,5,12,6,20,0.00,6,,220
2011-11-16,59,56,51,55,53,48,94,91,82,29.97,29.84,29.72,10,6,1,16,3,24,0.00,8,,299
2011-11-17,51,45,39,46,30,19,82,54,37,30.15,29.98,29.89,10,10,10,21,9,29,0.00,6,,325
2011-11-18,46,36,26,23,16,12,80,47,25,30.52,30.43,30.25,10,10,8,17,6,20,0.00,0,,263
2011-11-19,55,40,26,28,21,16,74,48,25,30.44,30.39,30.30,10,10,10,14,7,20,0.00,0,,184
2011-11-20,66,58,51,52,46,36,88,67,52,30.26,30.20,30.14,10,10,10,12,6,17,0.00,3,,207
2011-11-21,66,58,51,55,52,46,94,84,68,30.27,30.21,30.13,10,6,2,10,5,,0.00,7,,357
2011-11-22,53,50,48,50,47,45,93,89,82,30.26,30.16,29.90,9,3,0,6,3,,0.00,8,,353
2011-11-23,62,53,42,59,43,30,94,71,51,30.14,29.81,29.62,10,9,0,29,8,40,0.00,5,,297
2011-11-24,60,45,30,34,31,27,87,64,34,30.30,30.25,30.15,10,10,10,9,4,,0.00,0,,230
2011-11-25,66,46,26,37,31,23,93,68,30,30.31,30.25,30.18,10,10,10,5,0,,0.00,0,,190
2011-11-26,66,47,28,39,33,25,93,70,26,30.28,30.22,30.17,10,10,8,9,0,,0.00,0,,118
2011-11-27,60,48,35,48,35,30,87,80,63,30.17,30.13,30.07,10,10,10,15,2,22,0.00,1,,169
2011-11-28,71,60,48,55,49,45,93,74,46,30.13,30.06,29.97,10,10,10,13,7,17,0.00,5,,152
2011-11-29,64,54,44,57,48,34,88,79,62,29.97,29.80,29.68,10,9,2,20,9,25,0.00,5,Rain,153
2011-11-30,48,40,33,34,30,25,87,67,46,30.13,29.84,29.69,10,10,10,14,6,21,0.00,2,,260